Time;durP1;ratioP1;P1;durP2;ratioP2;P2;SDS_P1;SDS_P2;PMS_P1;PMS_P2;Temp;Humidity;BMP_temperature;BMP_pressure;BME280_temperature;BME280_humidity;BME280_pressure;Samples;Min_cycle;Max_cycle;Signal;HPM_P1;HPM_P2
2023/03/26 00:01:04;;;;;;;6.35;2.03;;;7.40;99.90;;;;;;5070156;28;20051;-84
2023/03/26 00:03:32;;;;;;;11.48;2.72;;;7.40;99.90;;;;;;5070113;28;20056;-84
2023/03/26 00:06:28;;;;;;;6.25;1.90;;;7.40;99.90;;;;;;5059270;28;20093;-84
2023/03/26 00:08:56;;;;;;;9.05;2.05;;;7.40;99.90;;;;;;5068822;28;20052;-85
2023/03/26 00:11:24;;;;;;;6.07;2.00;;;7.40;99.90;;;;;;5072368;28;20044;-85
2023/03/26 00:13:52;;;;;;;8.63;1.92;;;7.40;99.90;;;;;;5067605;28;20088;-85
2023/03/26 00:16:19;;;;;;;9.38;2.40;;;7.60;99.90;;;;;;5075063;28;20456;-85
2023/03/26 00:18:45;;;;;;;9.73;2.13;;;7.20;99.90;;;;;;5072110;28;20040;-85
2023/03/26 00:21:14;;;;;;;6.35;1.83;;;7.10;99.90;;;;;;5071374;28;20063;-84
2023/03/26 00:23:40;;;;;;;7.35;2.28;;;7.20;99.90;;;;;;5069161;28;20070;-84
2023/03/26 00:26:09;;;;;;;8.10;2.25;;;7.20;99.90;;;;;;5089366;28;20101;-84
2023/03/26 00:28:37;;;;;;;8.55;2.35;;;7.20;99.90;;;;;;5068258;28;20056;-84
2023/03/26 00:31:07;;;;;;;6.45;2.15;;;7.20;99.90;;;;;;5070129;28;20036;-85
2023/03/26 00:33:37;;;;;;;9.30;1.85;;;7.20;99.90;;;;;;5061322;28;20036;-84
2023/03/26 00:36:04;;;;;;;6.57;1.73;;;7.20;99.90;;;;;;5070681;28;20102;-85
2023/03/26 00:38:32;;;;;;;5.82;1.88;;;7.20;99.90;;;;;;5089136;28;20145;-84
2023/03/26 00:41:04;;;;;;;12.02;2.35;;;7.80;99.90;;;;;;5089710;28;20047;-83
2023/03/26 00:43:32;;;;;;;;;;;7.20;99.90;;;;;;5088923;28;20077;-84
2023/03/26 00:45:58;;;;;;;8.15;2.70;;;7.10;99.90;;;;;;5089176;28;20027;-84
2023/03/26 00:48:28;;;;;;;8.85;2.10;;;7.10;99.90;;;;;;5071273;28;20469;-85
2023/03/26 00:50:55;;;;;;;9.75;2.38;;;7.00;99.90;;;;;;5088926;28;20471;-85
2023/03/26 00:53:21;;;;;;;9.13;2.55;;;7.00;99.90;;;;;;5070100;28;20047;-84
2023/03/26 00:55:46;;;;;;;9.10;2.03;;;6.90;99.90;;;;;;5087521;28;20032;-85
2023/03/26 00:58:13;;;;;;;10.35;2.10;;;6.90;99.90;;;;;;5071788;28;20089;-85
2023/03/26 01:00:49;;;;;;;8.60;2.10;;;6.90;99.90;;;;;;5087857;28;20039;-85
2023/03/26 01:03:17;;;;;;;8.63;1.95;;;6.80;99.90;;;;;;5089086;28;20097;-85
2023/03/26 01:05:56;;;;;;;5.00;1.75;;;6.80;99.90;;;;;;5071168;28;20043;-85
2023/03/26 01:08:27;;;;;;;7.03;2.00;;;6.80;99.90;;;;;;5071743;28;20062;-85
2023/03/26 01:11:01;;;;;;;12.03;2.10;;;7.20;99.90;;;;;;5068200;28;20052;-85
2023/03/26 01:13:30;;;;;;;3.78;1.83;;;6.80;99.90;;;;;;5065097;28;20302;-85
2023/03/26 01:15:57;;;;;;;11.70;2.00;;;6.80;99.90;;;;;;5081532;28;20525;-85
2023/03/26 01:18:25;;;;;;;9.32;1.77;;;6.70;99.90;;;;;;5070511;28;20364;-85
2023/03/26 01:20:57;;;;;;;5.63;1.73;;;6.70;99.90;;;;;;5088286;28;20036;-85
2023/03/26 01:23:29;;;;;;;8.45;1.90;;;6.60;99.90;;;;;;5085525;28;20043;-85
2023/03/26 01:26:12;;;;;;;8.95;1.73;;;6.50;99.90;;;;;;5068595;28;20048;-85
2023/03/26 01:28:40;;;;;;;8.73;2.08;;;6.90;99.90;;;;;;5068092;28;20082;-85
2023/03/26 01:31:13;;;;;;;5.63;1.90;;;6.40;99.90;;;;;;5067855;28;20055;-85
2023/03/26 01:33:44;;;;;;;6.60;2.00;;;6.40;99.90;;;;;;5085389;28;20051;-85
2023/03/26 01:36:24;;;;;;;4.93;1.70;;;6.30;99.90;;;;;;5067655;28;20052;-85
2023/03/26 01:39:18;;;;;;;10.15;2.40;;;6.30;99.90;;;;;;5087039;28;20055;-85
2023/03/26 01:41:52;;;;;;;9.73;1.92;;;6.20;99.90;;;;;;5052083;28;20505;-85
2023/03/26 01:44:37;;;;;;;9.73;1.95;;;6.20;99.90;;;;;;5067955;28;20087;-85
2023/03/26 01:47:05;;;;;;;9.65;2.15;;;6.10;99.90;;;;;;5086615;28;20040;-85
2023/03/26 01:49:31;;;;;;;8.32;2.03;;;6.10;99.90;;;;;;5069235;28;20508;-84
2023/03/26 01:51:57;;;;;;;9.43;2.10;;;6.00;99.90;;;;;;5068835;28;20127;-85
2023/03/26 01:54:27;;;;;;;8.95;2.20;;;6.00;99.90;;;;;;5067840;28;20065;-85
2023/03/26 01:57:14;;;;;;;6.07;1.90;;;5.90;99.90;;;;;;5068676;28;20367;-85
2023/03/26 02:00:06;;;;;;;6.40;1.75;;;5.90;99.90;;;;;;5067263;28;20044;-85
2023/03/26 02:02:44;;;;;;;6.63;2.00;;;5.90;99.90;;;;;;5077559;28;20055;-85
2023/03/26 02:05:30;;;;;;;8.23;2.20;;;5.90;99.90;;;;;;5067254;28;20265;-85
2023/03/26 02:08:10;;;;;;;11.75;2.03;;;5.80;99.90;;;;;;5069498;28;20086;-85
2023/03/26 02:10:41;;;;;;;8.82;2.42;;;5.90;99.90;;;;;;5069498;28;20340;-85
2023/03/26 02:13:07;;;;;;;9.00;2.33;;;6.00;99.90;;;;;;5068587;28;20416;-85
2023/03/26 02:15:32;;;;;;;6.82;2.00;;;6.00;99.90;;;;;;5069021;28;20036;-85
2023/03/26 02:18:02;;;;;;;9.05;2.10;;;6.50;99.90;;;;;;5067807;28;20074;-85
2023/03/26 02:20:29;;;;;;;10.02;2.10;;;6.10;99.90;;;;;;5059298;28;20127;-85
2023/03/26 02:22:56;;;;;;;7.15;1.70;;;6.10;99.90;;;;;;5067620;28;20055;-85
2023/03/26 02:25:22;;;;;;;6.30;2.08;;;6.10;99.90;;;;;;5068693;28;20096;-85
2023/03/26 02:27:50;;;;;;;12.50;2.28;;;6.70;99.90;;;;;;5086518;28;20092;-85
2023/03/26 02:30:19;;;;;;;9.43;2.03;;;6.00;99.90;;;;;;5083713;28;20052;-85
2023/03/26 02:32:50;;;;;;;8.20;1.77;;;6.00;99.90;;;;;;5033745;28;20056;-84
2023/03/26 02:35:16;;;;;;;6.32;1.95;;;6.20;99.90;;;;;;5065984;28;20083;-85
2023/03/26 02:37:45;;;;;;;8.52;2.90;;;5.90;99.90;;;;;;5069849;28;20075;-84
2023/03/26 02:40:12;;;;;;;6.97;2.40;;;5.90;99.90;;;;;;5072167;28;20049;-84
2023/03/26 02:42:38;;;;;;;7.07;2.15;;;5.90;99.90;;;;;;5090446;28;20055;-85
2023/03/26 02:45:05;;;;;;;10.10;2.38;;;5.80;99.90;;;;;;5071958;28;20043;-84
2023/03/26 02:47:32;;;;;;;5.07;1.90;;;5.80;99.90;;;;;;5090376;28;20183;-84
2023/03/26 02:49:58;;;;;;;6.47;1.80;;;5.80;99.90;;;;;;5071237;28;20048;-85
2023/03/26 02:52:23;;;;;;;8.45;2.28;;;5.80;99.90;;;;;;5089270;28;20062;-84
2023/03/26 02:54:49;;;;;;;10.07;2.30;;;5.80;99.90;;;;;;5072132;28;20537;-84
2023/03/26 02:57:15;;;;;;;7.47;2.17;;;5.70;99.90;;;;;;5071994;28;20040;-84
2023/03/26 02:59:41;;;;;;;6.72;2.28;;;5.70;99.90;;;;;;5074064;28;20040;-84
2023/03/26 03:02:07;;;;;;;5.68;2.17;;;5.70;99.90;;;;;;5054653;28;20069;-84
2023/03/26 03:04:33;;;;;;;8.00;2.17;;;5.60;99.90;;;;;;5059496;28;20048;-85
2023/03/26 03:06:58;;;;;;;7.32;1.95;;;5.50;99.90;;;;;;5067271;28;20104;-84
2023/03/26 03:09:24;;;;;;;7.25;2.15;;;5.50;99.90;;;;;;5068711;28;20138;-84
2023/03/26 03:11:53;;;;;;;9.30;1.83;;;5.40;99.90;;;;;;5069954;28;20052;-84
2023/03/26 03:14:19;;;;;;;7.05;1.90;;;5.60;99.90;;;;;;5090708;28;20044;-85
2023/03/26 03:16:45;;;;;;;8.40;1.95;;;5.30;99.90;;;;;;5055045;28;20146;-84
2023/03/26 03:19:11;;;;;;;11.55;2.15;;;5.30;99.90;;;;;;5071985;28;20512;-85
2023/03/26 03:21:37;;;;;;;11.45;2.40;;;5.30;99.90;;;;;;5071181;28;20043;-84
2023/03/26 03:24:02;;;;;;;10.77;2.45;;;5.80;99.90;;;;;;5072124;28;20109;-84
2023/03/26 03:26:29;;;;;;;8.43;1.80;;;5.40;99.90;;;;;;5089077;28;20040;-84
2023/03/26 03:28:56;;;;;;;5.85;1.90;;;5.40;99.90;;;;;;5089455;28;20047;-84
2023/03/26 03:31:23;;;;;;;9.23;2.05;;;5.40;99.90;;;;;;5089239;28;20085;-84
2023/03/26 03:33:49;;;;;;;12.77;2.05;;;5.30;99.90;;;;;;5089622;28;20562;-84
2023/03/26 03:36:18;;;;;;;4.63;1.63;;;5.20;99.90;;;;;;5071077;28;20382;-84
2023/03/26 03:38:44;;;;;;;7.93;2.50;;;5.20;99.90;;;;;;5089538;28;20075;-84
2023/03/26 03:41:11;;;;;;;6.90;1.90;;;5.20;99.90;;;;;;5054660;28;20056;-84
2023/03/26 03:43:36;;;;;;;11.45;2.78;;;5.20;99.90;;;;;;5053318;28;20135;-85
2023/03/26 03:46:02;;;;;;;5.35;2.38;;;5.10;99.90;;;;;;5071905;28;20032;-85
2023/03/26 03:48:28;;;;;;;6.30;2.05;;;5.10;99.90;;;;;;5071208;28;20051;-84
2023/03/26 03:50:54;;;;;;;9.40;1.80;;;5.10;99.90;;;;;;5071911;28;20059;-84
2023/03/26 03:53:24;;;;;;;6.55;2.42;;;5.00;99.90;;;;;;5087688;28;20558;-84
2023/03/26 03:55:57;;;;;;;7.47;2.03;;;4.90;99.90;;;;;;5090130;28;20101;-84
2023/03/26 03:58:27;;;;;;;7.85;2.97;;;4.80;99.90;;;;;;5089383;28;20043;-84
2023/03/26 04:00:59;;;;;;;6.10;1.70;;;4.80;99.90;;;;;;5069859;28;20044;-84
2023/03/26 04:03:29;;;;;;;8.13;2.05;;;4.80;99.90;;;;;;5072198;28;20052;-84
2023/03/26 04:05:55;;;;;;;5.75;2.10;;;5.20;99.90;;;;;;5070488;28;20126;-85
2023/03/26 04:08:22;;;;;;;8.88;2.15;;;4.70;99.90;;;;;;5088183;28;20181;-85
2023/03/26 04:10:48;;;;;;;5.43;1.98;;;4.70;99.90;;;;;;5086786;28;20136;-84
2023/03/26 04:13:14;;;;;;;9.15;1.98;;;4.70;99.90;;;;;;5080995;28;20069;-84
2023/03/26 04:15:41;;;;;;;6.82;2.17;;;4.60;99.90;;;;;;5053838;28;20831;-85
2023/03/26 04:18:09;;;;;;;10.80;2.15;;;4.70;99.90;;;;;;5085034;28;20490;-84
2023/03/26 04:20:37;;;;;;;4.50;1.67;;;4.70;99.90;;;;;;5088838;28;20053;-84
2023/03/26 04:23:03;;;;;;;9.82;2.33;;;4.70;99.90;;;;;;5088787;28;20440;-84
2023/03/26 04:25:32;;;;;;;5.55;2.25;;;4.70;99.90;;;;;;5087215;28;20040;-84
2023/03/26 04:28:05;;;;;;;7.60;2.00;;;4.70;99.90;;;;;;5088557;28;20054;-84
2023/03/26 04:30:32;;;;;;;6.15;1.98;;;4.80;99.90;;;;;;5069894;28;20059;-84
2023/03/26 04:33:02;;;;;;;7.15;1.90;;;4.80;99.90;;;;;;5070937;28;20051;-85
2023/03/26 04:35:34;;;;;;;8.65;2.33;;;4.80;99.90;;;;;;5070122;28;20051;-84
2023/03/26 04:38:05;;;;;;;4.57;2.20;;;5.40;99.90;;;;;;5087236;28;20054;-84
2023/03/26 04:40:33;;;;;;;8.15;2.42;;;4.90;99.90;;;;;;5052967;28;20056;-84
2023/03/26 04:43:01;;;;;;;5.70;2.10;;;4.90;99.90;;;;;;5087370;28;20135;-84
2023/03/26 04:45:29;;;;;;;4.85;2.22;;;4.90;99.90;;;;;;5068482;28;20188;-85
2023/03/26 04:47:56;;;;;;;8.38;2.10;;;5.00;99.90;;;;;;5066866;28;20654;-84
2023/03/26 04:50:23;;;;;;;8.90;1.92;;;5.00;99.90;;;;;;5068366;28;20490;-84
2023/03/26 04:52:49;;;;;;;9.07;2.30;;;5.00;99.90;;;;;;5079430;28;20040;-84
2023/03/26 04:55:35;;;;;;;6.28;2.50;;;5.10;99.90;;;;;;5064590;28;20055;-84
2023/03/26 04:58:04;;;;;;;6.50;2.40;;;5.20;99.90;;;;;;5084852;28;20040;-84
2023/03/26 05:00:30;;;;;;;10.25;2.30;;;5.20;99.90;;;;;;5050962;28;20494;-84
2023/03/26 05:03:00;;;;;;;5.25;1.88;;;5.20;99.90;;;;;;5069337;28;20415;-85
2023/03/26 05:05:27;;;;;;;6.30;2.33;;;5.20;99.90;;;;;;5087634;28;20418;-85
2023/03/26 05:07:53;;;;;;;6.47;2.15;;;5.20;99.90;;;;;;5069175;28;20063;-84
2023/03/26 05:10:19;;;;;;;8.40;2.28;;;5.30;99.90;;;;;;5068520;28;20044;-84
2023/03/26 05:12:45;;;;;;;6.38;2.30;;;5.30;99.90;;;;;;5068405;28;20436;-85
2023/03/26 05:15:12;;;;;;;5.65;2.70;;;5.30;99.90;;;;;;5088398;28;20036;-85
2023/03/26 05:17:40;;;;;;;8.60;2.13;;;5.90;99.90;;;;;;5086127;28;20096;-84
2023/03/26 05:20:15;;;;;;;5.03;2.05;;;5.40;99.90;;;;;;5088604;28;20051;-84
2023/03/26 05:22:42;;;;;;;11.95;2.83;;;5.40;99.90;;;;;;5085639;28;20367;-85
2023/03/26 05:25:08;;;;;;;8.68;2.50;;;5.50;99.90;;;;;;5088192;28;20032;-85
2023/03/26 05:27:33;;;;;;;6.43;2.60;;;5.50;99.90;;;;;;5087354;28;20050;-84
2023/03/26 05:30:00;;;;;;;6.30;2.47;;;5.50;99.90;;;;;;5069933;28;20058;-85
2023/03/26 05:32:26;;;;;;;8.25;2.50;;;5.50;99.90;;;;;;5068203;28;20131;-85
2023/03/26 05:34:52;;;;;;;5.20;2.30;;;5.60;99.90;;;;;;5085489;28;20123;-84
2023/03/26 05:37:19;;;;;;;8.93;2.47;;;5.60;99.90;;;;;;5086978;28;20185;-85
2023/03/26 05:39:46;;;;;;;7.85;2.67;;;5.60;99.90;;;;;;5069082;28;20044;-84
2023/03/26 05:42:12;;;;;;;7.13;3.78;;;5.70;99.90;;;;;;5066853;28;20051;-86
2023/03/26 05:44:37;;;;;;;10.82;3.10;;;5.70;99.90;;;;;;5087754;28;20040;-86
2023/03/26 05:47:03;;;;;;;7.72;2.42;;;5.70;99.90;;;;;;5065175;28;20464;-84
2023/03/26 05:49:29;;;;;;;6.30;3.22;;;5.80;99.90;;;;;;5065590;28;20028;-84
2023/03/26 05:51:54;;;;;;;4.97;2.55;;;5.80;99.90;;;;;;5067307;28;20540;-84
2023/03/26 05:54:20;;;;;;;5.40;2.50;;;5.80;99.90;;;;;;5087599;28;20052;-85
2023/03/26 05:56:45;;;;;;;6.93;2.42;;;5.90;99.90;;;;;;5086082;28;20043;-84
2023/03/26 05:59:12;;;;;;;11.77;3.03;;;5.90;99.90;;;;;;5087895;28;20048;-84
2023/03/26 06:01:38;;;;;;;6.70;2.75;;;5.90;99.90;;;;;;5066996;28;20048;-84
2023/03/26 06:04:04;;;;;;;6.85;2.60;;;6.00;99.90;;;;;;5083247;28;20043;-85
2023/03/26 06:06:29;;;;;;;8.48;2.92;;;6.00;99.90;;;;;;5067438;28;20040;-85
2023/03/26 06:08:55;;;;;;;9.57;3.08;;;6.00;99.90;;;;;;5068136;28;20336;-84
2023/03/26 06:11:21;;;;;;;10.18;2.75;;;6.00;99.90;;;;;;5049741;28;20067;-84
2023/03/26 06:13:46;;;;;;;5.43;2.45;;;6.00;99.90;;;;;;5089922;28;20066;-85
2023/03/26 06:16:13;;;;;;;8.65;2.88;;;6.10;99.90;;;;;;5073258;28;20043;-85
2023/03/26 06:18:39;;;;;;;9.93;3.00;;;6.10;99.90;;;;;;5072699;28;20432;-85
2023/03/26 06:21:05;;;;;;;8.20;2.72;;;6.10;99.90;;;;;;5073882;28;20048;-84
2023/03/26 06:23:32;;;;;;;7.70;3.08;;;6.10;99.90;;;;;;5071584;28;20044;-81
2023/03/26 06:25:57;;;;;;;7.45;3.10;;;6.20;99.90;;;;;;5091428;28;20048;-83
2023/03/26 06:28:23;;;;;;;9.75;2.90;;;6.20;99.90;;;;;;5091618;28;20054;-81
2023/03/26 06:30:50;;;;;;;10.45;2.88;;;6.30;99.90;;;;;;5090299;28;20040;-80
2023/03/26 06:33:16;;;;;;;9.18;2.95;;;6.30;99.90;;;;;;5057537;28;20040;-81
2023/03/26 06:35:43;;;;;;;8.10;2.67;;;6.30;99.90;;;;;;5074380;28;20071;-80
2023/03/26 06:38:08;;;;;;;8.93;2.92;;;6.40;99.90;;;;;;5056669;28;20085;-80
2023/03/26 06:40:34;;;;;;;8.05;3.00;;;6.50;99.90;;;;;;5092024;28;20613;-81
2023/03/26 06:43:00;;;;;;;9.27;3.17;;;6.50;99.90;;;;;;5092525;28;20063;-80
2023/03/26 06:45:27;;;;;;;7.00;3.25;;;6.60;99.90;;;;;;5090478;28;20097;-81
2023/03/26 06:47:53;;;;;;;6.80;2.72;;;6.60;99.90;;;;;;5091740;28;20044;-80
2023/03/26 06:50:19;;;;;;;7.95;3.08;;;6.70;99.90;;;;;;5091738;28;20188;-81
2023/03/26 06:52:44;;;;;;;8.07;2.88;;;6.80;99.90;;;;;;5088988;28;20040;-80
2023/03/26 06:55:10;;;;;;;6.13;2.85;;;6.80;99.90;;;;;;5086157;28;20453;-81
2023/03/26 06:57:36;;;;;;;8.50;2.60;;;6.90;99.90;;;;;;5075539;28;20563;-81
2023/03/26 07:00:04;;;;;;;6.07;2.50;;;6.90;99.90;;;;;;5092537;28;20052;-82
2023/03/26 07:02:30;;;;;;;10.93;2.95;;;7.00;99.90;;;;;;5073619;28;20048;-82
2023/03/26 07:04:56;;;;;;;15.18;3.22;;;7.10;99.90;;;;;;5074144;28;20036;-82
2023/03/26 07:07:23;;;;;;;11.02;3.25;;;7.20;99.90;;;;;;5073385;28;20097;-82
2023/03/26 07:09:49;;;;;;;14.13;3.15;;;7.30;99.90;;;;;;5057073;28;20069;-82
2023/03/26 07:12:15;;;;;;;8.63;2.72;;;7.40;99.90;;;;;;5090728;28;20056;-82
2023/03/26 07:14:41;;;;;;;8.20;2.75;;;7.40;99.90;;;;;;5073056;28;20097;-81
2023/03/26 07:17:06;;;;;;;7.32;2.05;;;7.40;99.90;;;;;;5091389;28;20450;-82
2023/03/26 07:19:32;;;;;;;12.23;2.63;;;7.40;99.90;;;;;;5091459;28;20044;-82
2023/03/26 07:21:58;;;;;;;9.80;2.08;;;7.40;99.90;;;;;;5090353;28;20040;-82
2023/03/26 07:24:24;;;;;;;11.27;2.38;;;7.40;99.90;;;;;;5089577;28;20048;-82
2023/03/26 07:27:02;;;;;;;13.45;2.38;;;7.40;99.90;;;;;;5053264;28;20080;-83
2023/03/26 07:29:50;;;;;;;11.07;2.47;;;7.50;99.90;;;;;;5071191;28;20127;-82
2023/03/26 07:32:34;;;;;;;12.13;2.55;;;7.50;99.90;;;;;;5070572;28;20503;-83
2023/03/26 07:35:29;;;;;;;14.02;2.40;;;7.50;99.90;;;;;;5051813;28;20060;-82
2023/03/26 07:38:08;;;;;;;13.93;2.60;;;7.50;99.90;;;;;;5070004;28;20145;-83
2023/03/26 07:40:52;;;;;;;12.65;2.25;;;7.50;99.90;;;;;;5064359;28;20392;-82
2023/03/26 07:43:49;;;;;;;9.68;2.25;;;7.60;99.90;;;;;;5089698;28;20048;-82
2023/03/26 07:46:18;;;;;;;10.40;2.33;;;7.60;99.90;;;;;;5089406;28;20052;-82
2023/03/26 07:48:50;;;;;;;9.07;2.70;;;7.60;99.90;;;;;;5088778;28;20036;-82
2023/03/26 07:51:17;;;;;;;12.33;2.30;;;7.70;99.90;;;;;;5089258;28;20097;-80
2023/03/26 07:53:45;;;;;;;7.63;2.35;;;7.70;99.90;;;;;;5088993;28;20059;-80
2023/03/26 07:56:46;;;;;;;9.15;1.77;;;7.70;99.90;;;;;;5089232;28;20072;-80
2023/03/26 07:59:39;;;;;;;9.02;2.10;;;7.80;99.90;;;;;;5043918;28;20052;-82
2023/03/26 08:02:40;;;;;;;13.35;2.35;;;7.80;99.90;;;;;;5088384;28;20048;-82
2023/03/26 08:05:17;;;;;;;11.98;2.00;;;8.00;99.90;;;;;;5089923;28;20043;-82
2023/03/26 08:08:15;;;;;;;9.43;2.63;;;7.80;99.90;;;;;;5089645;28;20051;-82
2023/03/26 08:11:02;;;;;;;12.43;2.55;;;7.80;99.90;;;;;;5070546;28;20615;-82
2023/03/26 08:13:37;;;;;;;13.93;2.10;;;7.80;99.90;;;;;;5086737;28;20048;-81
2023/03/26 08:16:15;;;;;;;8.98;2.28;;;7.90;99.90;;;;;;5071251;28;20093;-81
2023/03/26 08:18:54;;;;;;;10.32;2.15;;;7.90;99.90;;;;;;5089243;28;20390;-82
2023/03/26 08:21:53;;;;;;;10.80;2.00;;;8.00;99.90;;;;;;5089345;28;20125;-82
2023/03/26 08:24:22;;;;;;;13.95;2.53;;;7.90;99.90;;;;;;5083554;28;20121;-82
2023/03/26 08:27:24;;;;;;;15.07;2.38;;;8.00;99.90;;;;;;5088048;28;20052;-82
2023/03/26 08:30:08;;;;;;;11.00;2.38;;;8.00;99.90;;;;;;5089190;28;20101;-82
2023/03/26 08:32:34;;;;;;;9.75;2.42;;;8.10;99.90;;;;;;5070541;28;20036;-82
2023/03/26 08:35:00;;;;;;;8.18;2.15;;;8.20;99.90;;;;;;5070692;28;20118;-82
2023/03/26 08:37:26;;;;;;;17.05;2.33;;;8.30;99.90;;;;;;5067276;28;20065;-82
2023/03/26 08:39:52;;;;;;;13.07;2.65;;;8.30;99.90;;;;;;5066549;28;20458;-82
2023/03/26 08:42:17;;;;;;;13.30;2.50;;;8.30;99.90;;;;;;5067905;28;20084;-82
2023/03/26 08:45:13;;;;;;;10.57;2.03;;;8.20;99.90;;;;;;5066805;28;20186;-82
2023/03/26 08:48:02;;;;;;;11.73;2.17;;;8.20;99.90;;;;;;5067789;28;20800;-82
2023/03/26 08:50:49;;;;;;;12.95;2.38;;;8.10;99.90;;;;;;5066701;28;20047;-82
2023/03/26 08:53:24;;;;;;;12.50;2.45;;;8.60;99.90;;;;;;5067140;28;20514;-82
2023/03/26 08:56:02;;;;;;;8.73;2.47;;;8.30;99.90;;;;;;5067046;28;20132;-82
2023/03/26 08:58:59;;;;;;;10.35;2.17;;;8.40;99.90;;;;;;5068166;28;20052;-82
2023/03/26 09:02:01;;;;;;;9.98;2.08;;;8.40;99.90;;;;;;5067929;28;20052;-82
2023/03/26 09:04:30;;;;;;;16.95;2.83;;;8.60;99.90;;;;;;5062765;28;20049;-82
2023/03/26 09:07:14;;;;;;;10.85;1.88;;;8.60;99.90;;;;;;5047768;28;20124;-83
2023/03/26 09:10:37;;;;;;;17.92;2.88;;;9.20;99.90;;;;;;5047771;28;20448;-82
2023/03/26 09:13:21;;;;;;;13.93;1.85;;;8.60;99.90;;;;;;4988297;28;20049;-82
2023/03/26 09:15:58;;;;;;;13.98;2.00;;;8.70;99.90;;;;;;4988708;28;20053;-82
2023/03/26 09:18:54;;;;;;;11.05;2.80;;;8.70;99.90;;;;;;5041098;28;20088;-82
2023/03/26 09:21:47;;;;;;;9.57;2.60;;;8.80;99.90;;;;;;5067228;28;20544;-83
2023/03/26 09:24:18;;;;;;;;;;;8.90;99.90;;;;;;5067690;28;20049;-82
2023/03/26 09:26:50;;;;;;;8.48;2.00;;;8.90;99.90;;;;;;5050517;28;20294;-82
2023/03/26 09:29:48;;;;;;;4.97;1.60;;;8.90;99.90;;;;;;5065910;28;20049;-82
2023/03/26 09:32:56;;;;;;;14.52;2.67;;;9.00;99.90;;;;;;5066475;28;20291;-83
2023/03/26 09:36:07;;;;;;;8.40;2.20;;;9.20;99.90;;;;;;5055090;28;20056;-83
2023/03/26 09:38:42;;;;;;;9.60;2.05;;;9.10;99.90;;;;;;5066333;28;20044;-82
2023/03/26 09:41:19;;;;;;;9.70;2.67;;;9.00;99.90;;;;;;5064594;28;20075;-83
2023/03/26 09:44:30;;;;;;;8.27;1.60;;;9.10;99.90;;;;;;5066683;28;20449;-81
2023/03/26 09:47:23;;;;;;;8.40;2.30;;;9.10;99.90;;;;;;5022549;28;20052;-82
2023/03/26 09:50:13;;;;;;;12.77;1.92;;;9.10;99.90;;;;;;5062892;28;20168;-82
2023/03/26 09:53:04;;;;;;;11.07;2.40;;;9.00;99.90;;;;;;5034045;28;20079;-82
2023/03/26 09:55:55;;;;;;;10.30;1.75;;;9.10;99.90;;;;;;5070044;28;20077;-82
2023/03/26 09:58:24;;;;;;;8.07;2.22;;;9.10;99.90;;;;;;5067652;28;20084;-81
2023/03/26 10:01:19;;;;;;;6.93;1.95;;;9.20;99.90;;;;;;5049759;28;20090;-79
2023/03/26 10:04:06;;;;;;;6.65;1.92;;;9.30;99.90;;;;;;5066098;28;20048;-79
2023/03/26 10:06:47;;;;;;;9.27;1.98;;;9.40;99.90;;;;;;5065410;28;20044;-80
2023/03/26 10:09:49;;;;;;;11.32;2.10;;;9.40;99.90;;;;;;5058167;28;20083;-81
2023/03/26 10:13:03;;;;;;;8.95;1.85;;;9.30;99.90;;;;;;5054257;28;20052;-80
2023/03/26 10:15:43;;;;;;;7.95;1.67;;;9.40;99.90;;;;;;5005534;28;20084;-80
2023/03/26 10:18:18;;;;;;;7.13;1.88;;;9.40;99.90;;;;;;5063931;28;20036;-80
2023/03/26 10:21:02;;;;;;;11.57;2.15;;;9.40;99.90;;;;;;5066950;28;20080;-80
2023/03/26 10:23:36;;;;;;;8.13;1.92;;;9.40;99.90;;;;;;5063872;28;20040;-81
2023/03/26 10:26:40;;;;;;;9.75;2.00;;;9.30;99.90;;;;;;5049370;28;20182;-81
2023/03/26 10:29:19;;;;;;;8.55;1.75;;;9.40;99.90;;;;;;5066372;28;20048;-81
2023/03/26 10:32:04;;;;;;;9.48;1.95;;;9.40;99.90;;;;;;5065236;28;20064;-81
2023/03/26 10:35:08;;;;;;;7.28;1.73;;;9.50;99.90;;;;;;5064783;28;20379;-81
2023/03/26 10:37:46;;;;;;;8.98;2.20;;;9.50;99.90;;;;;;5064793;28;20560;-80
2023/03/26 10:40:42;;;;;;;10.68;2.25;;;9.60;99.90;;;;;;5066787;28;20106;-81
2023/03/26 10:43:49;;;;;;;6.47;1.90;;;9.60;99.90;;;;;;5066190;28;20064;-83
2023/03/26 10:46:53;;;;;;;11.82;2.33;;;9.60;99.90;;;;;;4998758;28;20430;-82
2023/03/26 10:49:47;;;;;;;7.45;2.10;;;9.60;99.90;;;;;;5045195;28;20136;-82
2023/03/26 10:52:39;;;;;;;4.00;1.40;;;9.50;99.90;;;;;;5065099;28;20423;-82
2023/03/26 10:55:36;;;;;;;11.18;2.15;;;9.50;99.90;;;;;;5057619;28;20098;-81
2023/03/26 10:58:17;;;;;;;9.73;1.63;;;9.60;99.90;;;;;;5061971;28;20075;-80
2023/03/26 11:00:55;;;;;;;6.63;1.88;;;9.50;99.90;;;;;;5061654;28;20029;-79
2023/03/26 11:03:50;;;;;;;4.90;1.55;;;9.50;99.90;;;;;;5068979;28;20157;-80
2023/03/26 11:06:58;;;;;;;9.07;2.40;;;9.60;99.90;;;;;;5070565;28;20048;-80
2023/03/26 11:09:35;;;;;;;8.07;1.88;;;9.60;99.90;;;;;;5049134;28;20478;-80
2023/03/26 11:12:32;;;;;;;8.50;1.85;;;9.60;99.90;;;;;;5068402;28;20128;-79
2023/03/26 11:15:17;;;;;;;6.13;1.42;;;9.70;99.90;;;;;;5070566;28;20125;-79
2023/03/26 11:18:03;;;;;;;6.03;1.90;;;9.70;99.90;;;;;;5068438;28;20105;-79
2023/03/26 11:20:37;;;;;;;7.90;1.77;;;9.70;99.90;;;;;;5020255;28;20060;-79
2023/03/26 11:23:34;;;;;;;6.45;1.65;;;9.80;99.90;;;;;;5066260;28;20154;-79
2023/03/26 11:26:12;;;;;;;11.38;2.42;;;9.80;99.90;;;;;;5069464;28;20056;-79
2023/03/26 11:29:03;;;;;;;11.23;1.95;;;9.80;99.90;;;;;;5070033;28;20491;-79
2023/03/26 11:31:43;;;;;;;8.35;1.73;;;9.70;99.90;;;;;;5071504;28;20055;-80
2023/03/26 11:34:16;;;;;;;11.52;1.70;;;9.70;99.90;;;;;;5070474;28;20487;-80
2023/03/26 11:36:47;;;;;;;8.73;2.28;;;9.80;99.90;;;;;;5077647;28;20091;-79
2023/03/26 11:39:24;;;;;;;9.27;1.60;;;9.80;99.90;;;;;;5084765;28;20378;-80
2023/03/26 11:41:58;;;;;;;8.80;1.67;;;9.70;99.90;;;;;;5090229;28;20044;-80
2023/03/26 11:44:29;;;;;;;9.75;2.05;;;9.60;99.90;;;;;;5070453;28;20390;-80
2023/03/26 11:47:00;;;;;;;6.10;2.40;;;9.50;99.90;;;;;;5091148;28;20052;-80
2023/03/26 11:49:28;;;;;;;8.35;1.90;;;9.60;99.90;;;;;;5056114;28;20047;-80
2023/03/26 11:51:53;;;;;;;9.60;2.17;;;10.20;99.90;;;;;;5090044;28;20044;-80
2023/03/26 11:54:19;;;;;;;8.38;1.95;;;9.30;99.90;;;;;;5088224;28;20044;-80
2023/03/26 11:56:57;;;;;;;7.55;1.95;;;9.90;99.90;;;;;;5090703;28;20139;-80
2023/03/26 11:59:33;;;;;;;8.40;2.10;;;9.60;99.90;;;;;;5089793;28;20163;-79
2023/03/26 12:02:21;;;;;;;17.70;3.03;;;9.60;99.90;;;;;;5071410;28;20521;-80
2023/03/26 12:04:54;;;;;;;9.15;2.65;;;9.60;99.90;;;;;;5090279;28;20119;-80
2023/03/26 12:07:32;;;;;;;9.90;1.80;;;9.50;99.90;;;;;;5071990;28;20548;-79
2023/03/26 12:09:59;;;;;;;9.43;1.98;;;9.40;99.90;;;;;;5072073;28;20443;-79
2023/03/26 12:12:30;;;;;;;8.27;1.80;;;9.30;99.90;;;;;;5071585;28;20130;-80
2023/03/26 12:14:57;;;;;;;6.53;1.70;;;9.30;99.90;;;;;;5072446;28;20093;-79
2023/03/26 12:17:31;;;;;;;13.35;2.42;;;9.30;99.90;;;;;;5090496;28;20282;-80
2023/03/26 12:19:57;;;;;;;12.80;2.25;;;9.30;99.90;;;;;;5089137;28;20047;-79
2023/03/26 12:22:29;;;;;;;6.55;2.38;;;9.20;99.90;;;;;;5088589;28;20040;-79
2023/03/26 12:25:16;;;;;;;7.10;1.80;;;9.20;99.90;;;;;;5088639;28;20043;-79
2023/03/26 12:28:02;;;;;;;8.40;1.77;;;9.20;99.90;;;;;;5087570;28;20067;-80
2023/03/26 12:30:33;;;;;;;9.63;2.15;;;9.50;99.90;;;;;;5073002;28;20090;-79
2023/03/26 12:33:02;;;;;;;7.28;2.22;;;9.20;99.90;;;;;;5071268;28;20112;-79
2023/03/26 12:35:30;;;;;;;8.27;1.85;;;9.10;99.90;;;;;;5070611;28;20083;-79
2023/03/26 12:38:15;;;;;;;7.00;1.80;;;9.10;99.90;;;;;;5070920;28;20047;-79
2023/03/26 12:40:42;;;;;;;5.97;1.98;;;9.20;99.90;;;;;;5071401;28;20540;-79
2023/03/26 12:43:41;;;;;;;5.90;1.88;;;9.30;99.90;;;;;;5089639;28;20043;-79
2023/03/26 12:46:24;;;;;;;5.10;1.80;;;9.30;99.90;;;;;;5088735;28;20046;-79
2023/03/26 12:48:55;;;;;;;7.30;2.25;;;9.40;99.90;;;;;;5070786;28;20098;-79
2023/03/26 12:51:39;;;;;;;9.60;1.83;;;9.40;99.90;;;;;;5070606;28;20422;-79
2023/03/26 12:54:25;;;;;;;8.20;1.90;;;9.40;99.90;;;;;;5088258;28;20051;-79
2023/03/26 12:57:06;;;;;;;9.60;1.90;;;9.40;99.90;;;;;;5070134;28;20060;-80
2023/03/26 13:00:06;;;;;;;6.40;1.88;;;9.30;99.90;;;;;;5088556;28;20109;-79
2023/03/26 13:03:04;;;;;;;5.55;1.60;;;9.20;99.90;;;;;;5068423;28;20163;-80
2023/03/26 13:05:55;;;;;;;11.70;1.98;;;9.20;99.90;;;;;;5054036;28;20556;-78
2023/03/26 13:08:31;;;;;;;6.72;1.92;;;9.20;99.90;;;;;;5088639;28;20048;-79
2023/03/26 13:11:16;;;;;;;6.75;1.95;;;9.20;99.90;;;;;;5087207;28;20091;-79
2023/03/26 13:14:05;;;;;;;6.47;1.80;;;9.10;99.90;;;;;;5079179;28;20547;-79
2023/03/26 13:16:56;;;;;;;6.03;2.00;;;9.10;99.90;;;;;;5071122;28;20127;-79
2023/03/26 13:19:41;;;;;;;9.38;2.42;;;9.20;99.90;;;;;;5089634;28;20451;-78
2023/03/26 13:22:34;;;;;;;6.75;1.52;;;9.20;99.90;;;;;;5069857;28;20070;-79
2023/03/26 13:25:21;;;;;;;5.15;1.80;;;9.20;99.90;;;;;;5088819;28;20124;-79
2023/03/26 13:28:05;;;;;;;9.38;2.10;;;9.30;99.90;;;;;;5086885;28;20055;-79
2023/03/26 13:30:59;;;;;;;12.88;1.85;;;9.40;99.90;;;;;;5088705;28;20047;-79
2023/03/26 13:33:59;;;;;;;8.05;1.67;;;9.50;99.90;;;;;;5088852;28;20486;-79
2023/03/26 13:37:02;;;;;;;5.78;1.50;;;9.40;99.90;;;;;;5054811;28;20044;-79